Time;durP1;ratioP1;P1;durP2;ratioP2;P2;SDS_P1;SDS_P2;PMS_P1;PMS_P2;Temp;Humidity;BMP_temperature;BMP_pressure;BME280_temperature;BME280_humidity;BME280_pressure;Samples;Min_cycle;Max_cycle;Signal;HPM_P1;HPM_P2
2021/03/22 00:01:43;;;;;;;7.45;5.18;;;;;;;0.46;100.00;93970.84;5104881;28;20066;-69
2021/03/22 00:04:10;;;;;;;10.13;7.55;;;;;;;0.33;100.00;93950.31;5106308;28;20531;-69
2021/03/22 00:06:37;;;;;;;9.93;7.72;;;;;;;0.50;100.00;93971.28;5107582;27;20036;-69
2021/03/22 00:09:03;;;;;;;10.00;6.60;;;;;;;0.61;100.00;93959.69;5107448;28;20043;-69
2021/03/22 00:11:30;;;;;;;6.28;4.45;;;;;;;0.61;100.00;93957.13;5107720;28;20043;-69
2021/03/22 00:13:56;;;;;;;7.78;5.38;;;;;;;0.60;100.00;93950.44;5107686;28;20054;-70
2021/03/22 00:16:23;;;;;;;7.55;4.93;;;;;;;0.68;100.00;93948.47;5104416;28;20039;-70
2021/03/22 00:18:51;;;;;;;8.32;5.93;;;;;;;0.52;100.00;93941.94;5105646;27;20552;-70
2021/03/22 00:21:17;;;;;;;7.63;5.85;;;;;;;0.36;100.00;93934.53;5105420;28;20035;-70
2021/03/22 00:23:43;;;;;;;7.45;6.18;;;;;;;0.53;100.00;93940.16;5106722;27;20058;-70
2021/03/22 00:26:10;;;;;;;10.60;7.53;;;;;;;0.66;100.00;93939.41;5106340;28;20035;-70
2021/03/22 00:28:40;;;;;;;6.70;5.18;;;;;;;0.90;100.00;93931.22;5106938;28;20054;-70
2021/03/22 00:31:09;;;;;;;5.63;4.65;;;;;;;0.98;100.00;93914.09;5107641;27;20046;-70
2021/03/22 00:33:36;;;;;;;6.43;4.70;;;;;;;1.13;100.00;93930.09;5106551;27;20058;-70
2021/03/22 00:36:05;;;;;;;9.05;6.68;;;;;;;1.00;100.00;93930.06;5106132;27;20118;-70
2021/03/22 00:38:31;;;;;;;9.55;7.20;;;;;;;0.86;100.00;93904.38;5106976;28;20051;-70
2021/03/22 00:40:58;;;;;;;8.55;6.15;;;;;;;1.30;100.00;93921.03;5106686;28;20039;-70
2021/03/22 00:43:25;;;;;;;8.68;6.18;;;;;;;1.38;100.00;93906.44;5109299;27;20043;-70
2021/03/22 00:45:54;;;;;;;10.93;6.60;;;;;;;1.51;100.00;93912.38;5106469;28;20596;-70
2021/03/22 00:48:23;;;;;;;11.73;7.55;;;;;;;1.59;100.00;93918.31;5106762;27;20152;-70
2021/03/22 00:50:50;;;;;;;10.55;6.82;;;;;;;1.47;100.00;93930.91;5106190;28;20032;-70
2021/03/22 00:53:17;;;;;;;9.43;6.30;;;;;;;1.48;100.00;93937.66;5106512;28;20118;-70
2021/03/22 00:55:45;;;;;;;9.95;5.63;;;;;;;1.47;100.00;93933.50;5106554;28;20043;-71
2021/03/22 00:58:12;;;;;;;9.40;5.95;;;;;;;1.50;100.00;93935.66;5106422;27;20056;-70
2021/03/22 01:00:46;;;;;;;10.27;6.70;;;;;;;1.27;100.00;93910.38;5106080;28;20576;-70
2021/03/22 01:03:17;;;;;;;10.10;6.22;;;;;;;1.37;100.00;93920.25;5108039;27;20100;-70
2021/03/22 01:05:44;;;;;;;9.48;6.13;;;;;;;1.34;100.00;93911.19;5105843;27;20039;-70
2021/03/22 01:08:11;;;;;;;9.63;5.60;;;;;;;1.30;100.00;93905.66;5106406;28;20039;-70
2021/03/22 01:10:44;;;;;;;7.93;5.32;;;;;;;1.18;100.00;93904.66;5105619;27;20096;-70
2021/03/22 01:13:27;;;;;;;8.45;5.85;;;;;;;1.14;100.00;93890.63;5105732;27;20416;-70
2021/03/22 01:16:11;;;;;;;7.65;5.38;;;;;;;1.11;100.00;93876.41;5105977;28;20040;-70
2021/03/22 01:18:41;;;;;;;8.32;5.40;;;;;;;1.14;100.00;93885.50;5103152;28;20051;-71
2021/03/22 01:21:31;;;;;;;9.45;5.95;;;;;;;1.14;100.00;93901.69;5102622;28;20039;-70
2021/03/22 01:23:58;;;;;;;18.95;10.30;;;;;;;1.26;100.00;93881.38;5105698;28;20806;-71
2021/03/22 01:26:30;;;;;;;9.52;6.70;;;;;;;1.27;100.00;93859.84;5105700;28;20066;-71
2021/03/22 01:28:57;;;;;;;11.73;7.85;;;;;;;1.27;100.00;93859.84;5104961;28;20048;-71
2021/03/22 01:31:24;;;;;;;12.88;8.18;;;;;;;1.33;100.00;93842.88;5106890;27;20509;-70
2021/03/22 01:33:52;;;;;;;11.60;6.75;;;;;;;1.43;100.00;93842.50;5105706;28;20063;-71
2021/03/22 01:36:28;;;;;;;9.50;7.05;;;;;;;1.50;100.00;93833.03;5105546;28;20043;-72
2021/03/22 01:38:57;;;;;;;9.27;5.50;;;;;;;1.55;100.00;93840.91;5104933;28;20428;-70
2021/03/22 01:41:29;;;;;;;8.75;5.50;;;;;;;1.51;100.00;93848.22;5105873;28;20040;-71
2021/03/22 01:44:25;;;;;;;12.63;8.45;;;;;;;1.51;100.00;93861.06;5104843;28;20054;-70
2021/03/22 01:47:00;;;;;;;17.38;9.65;;;;;;;1.28;100.00;93858.09;5105707;28;20063;-71
2021/03/22 01:49:31;;;;;;;13.85;8.80;;;;;;;1.17;100.00;93859.47;5107480;28;20071;-71
2021/03/22 01:51:58;;;;;;;12.00;7.28;;;;;;;1.12;100.00;93856.72;5105707;28;20403;-71
2021/03/22 01:54:24;;;;;;;11.38;7.03;;;;;;;1.11;100.00;93849.97;5105352;28;20420;-71
2021/03/22 01:57:12;;;;;;;10.23;6.35;;;;;;;1.06;100.00;93849.78;5105457;28;20071;-71
2021/03/22 01:59:38;;;;;;;13.10;7.82;;;;;;;1.14;100.00;93844.47;5104403;28;20050;-71
2021/03/22 02:02:05;;;;;;;8.80;5.30;;;;;;;1.07;100.00;93834.19;5105632;28;20036;-71
2021/03/22 02:04:32;;;;;;;10.40;6.13;;;;;;;1.08;100.00;93829.84;5105632;28;20050;-71
2021/03/22 02:06:59;;;;;;;8.63;5.35;;;;;;;1.13;100.00;93830.06;5087052;28;20054;-71
2021/03/22 02:09:26;;;;;;;8.50;5.00;;;;;;;1.04;100.00;93828.66;5105636;28;20048;-71
2021/03/22 02:11:52;;;;;;;6.57;5.05;;;;;;;0.95;100.00;93816.06;5105498;28;20101;-71
2021/03/22 02:14:18;;;;;;;7.00;4.88;;;;;;;1.08;100.00;93830.66;5087023;28;20051;-71
2021/03/22 02:17:22;;;;;;;5.00;3.28;;;;;;;1.05;100.00;93825.13;5106862;28;20031;-71
2021/03/22 02:20:08;;;;;;;3.78;3.03;;;;;;;1.10;100.00;93827.91;5107830;28;20119;-71
2021/03/22 02:22:38;;;;;;;4.93;3.72;;;;;;;1.10;100.00;93827.91;5106155;28;20048;-71
2021/03/22 02:25:56;;;;;;;5.55;3.90;;;;;;;0.85;100.00;93802.03;5109471;27;20080;-71
2021/03/22 02:28:26;;;;;;;6.68;5.18;;;;;;;0.99;100.00;93825.91;5027757;28;20052;-71
2021/03/22 02:31:33;;;;;;;8.20;5.15;;;;;;;0.97;100.00;93831.22;5105776;27;20052;-71
2021/03/22 02:34:11;;;;;;;10.20;6.60;;;;;;;0.72;100.00;93825.88;5109596;28;20043;-73
2021/03/22 02:36:52;;;;;;;8.18;6.20;;;;;;;0.82;100.00;93828.84;5107669;28;20036;-71
2021/03/22 02:39:19;;;;;;;11.02;6.63;;;;;;;0.79;100.00;93807.94;5108177;28;20047;-71
2021/03/22 02:41:53;;;;;;;9.90;7.15;;;;;;;0.81;100.00;93824.72;5109284;27;20119;-71
2021/03/22 02:44:29;;;;;;;16.02;9.82;;;;;;;0.83;100.00;93830.44;5108544;28;20039;-71
2021/03/22 02:47:08;;;;;;;19.35;9.25;;;;;;;0.79;100.00;93826.66;5107842;27;20528;-72
2021/03/22 02:49:39;;;;;;;17.95;10.20;;;;;;;0.68;100.00;93825.47;5107752;27;20060;-71
2021/03/22 02:52:27;;;;;;;19.00;10.55;;;;;;;0.64;100.00;93823.50;5110121;27;20327;-71
2021/03/22 02:55:07;;;;;;;23.15;12.65;;;;;;;0.60;100.00;93791.56;5106658;28;20051;-71
2021/03/22 02:58:12;;;;;;;20.23;11.25;;;;;;;0.55;100.00;93820.31;5106452;28;20070;-71
2021/03/22 03:00:41;;;;;;;;;;;;;;;0.65;100.00;93797.69;5108035;28;20046;-70
2021/03/22 03:03:11;;;;;;;11.02;6.78;;;;;;;0.67;100.00;93787.25;5108870;28;20026;-70
2021/03/22 03:05:38;;;;;;;13.40;7.80;;;;;;;0.63;100.00;93791.16;5108404;27;20526;-70
2021/03/22 03:08:12;;;;;;;14.00;8.00;;;;;;;0.51;100.00;93778.91;5108611;28;20527;-70
2021/03/22 03:10:38;;;;;;;19.98;9.07;;;;;;;0.47;100.00;93782.06;5108521;28;20039;-70
2021/03/22 03:13:05;;;;;;;29.88;12.32;;;;;;;0.42;100.00;93764.72;5108568;28;20050;-70
2021/03/22 03:15:36;;;;;;;18.63;8.48;;;;;;;0.46;100.00;93771.03;5108570;27;20048;-71
2021/03/22 03:18:03;;;;;;;12.32;6.55;;;;;;;0.51;100.00;93778.91;5107584;28;20382;-70
2021/03/22 03:20:31;;;;;;;8.60;5.15;;;;;;;0.38;100.00;93771.22;5105055;28;20032;-70
2021/03/22 03:22:59;;;;;;;10.90;6.07;;;;;;;0.49;100.00;93775.00;5106741;28;20059;-70
2021/03/22 03:25:27;;;;;;;8.45;4.40;;;;;;;0.59;100.00;93754.09;5090056;28;20070;-70
2021/03/22 03:27:54;;;;;;;6.20;4.18;;;;;;;0.63;100.00;93750.97;5108495;27;20048;-70
2021/03/22 03:30:24;;;;;;;5.30;3.35;;;;;;;0.54;100.00;93773.41;5107909;28;20614;-71
2021/03/22 03:32:52;;;;;;;16.10;9.80;;;;;;;0.71;100.00;93778.16;5106997;28;20043;-71
2021/03/22 03:35:22;;;;;;;26.42;10.32;;;;;;;0.47;100.00;93756.44;5107931;27;20035;-71
2021/03/22 03:37:49;;;;;;;23.13;9.15;;;;;;;0.54;100.00;93765.72;5107803;28;20047;-71
2021/03/22 03:40:21;;;;;;;12.27;6.40;;;;;;;0.62;100.00;93758.84;5106967;27;20039;-71
2021/03/22 03:49:10;;;;;;;6.20;3.65;;;;;;;0.40;100.00;93776.94;5107633;27;20579;-71
2021/03/22 03:51:38;;;;;;;14.82;8.98;;;;;;;0.26;100.00;93785.56;5122271;27;20139;-71
2021/03/22 03:54:06;;;;;;;32.80;15.90;;;;;;;0.39;100.00;93770.22;5120514;27;20059;-71
2021/03/22 03:56:33;;;;;;;23.58;11.18;;;;;;;0.59;100.00;93754.09;5120414;27;20496;-72
2021/03/22 03:59:00;;;;;;;20.52;10.00;;;;;;;0.37;100.00;93746.56;5121426;27;20059;-71
2021/03/22 04:01:27;;;;;;;16.60;8.23;;;;;;;0.64;100.00;93772.25;5120947;27;20055;-71
2021/03/22 04:03:54;;;;;;;22.35;9.57;;;;;;;0.49;100.00;93770.66;5119511;27;20055;-71
2021/03/22 04:06:27;;;;;;;18.98;9.48;;;;;;;0.55;100.00;93772.41;5121435;27;20444;-71
2021/03/22 04:09:08;;;;;;;13.63;6.80;;;;;;;0.62;100.00;93763.97;5122454;27;20138;-71
2021/03/22 04:11:40;;;;;;;14.38;6.90;;;;;;;0.56;100.00;93756.06;5122261;27;20534;-71
2021/03/22 04:14:09;;;;;;;24.25;10.98;;;;;;;0.60;100.00;93760.81;5125717;27;20055;-71
2021/03/22 04:16:36;;;;;;;25.08;12.32;;;;;;;0.63;100.00;93765.53;5120398;27;20122;-71
2021/03/22 04:19:03;;;;;;;26.50;11.57;;;;;;;0.52;100.00;93760.00;5121998;27;20047;-72
2021/03/22 04:21:30;;;;;;;25.25;12.25;;;;;;;0.55;100.00;93754.47;5120482;27;20049;-71
2021/03/22 04:23:59;;;;;;;21.00;10.13;;;;;;;0.46;100.00;93755.66;5122429;27;20512;-71
2021/03/22 04:26:25;;;;;;;18.55;8.30;;;;;;;0.31;100.00;93747.38;5120974;27;20039;-71
2021/03/22 04:28:52;;;;;;;13.50;5.85;;;;;;;0.39;100.00;93729.22;5122336;27;20413;-71
2021/03/22 04:31:21;;;;;;;18.48;6.28;;;;;;;0.66;100.00;93739.53;5122070;27;20049;-71
2021/03/22 04:33:50;;;;;;;7.50;4.35;;;;;;;0.54;100.00;93752.91;5121153;27;20055;-71
2021/03/22 04:36:18;;;;;;;7.72;4.25;;;;;;;0.52;100.00;93760.00;5122224;27;20049;-71
2021/03/22 04:38:44;;;;;;;13.45;7.95;;;;;;;0.23;100.00;93760.34;5122698;27;20112;-71
2021/03/22 04:41:10;;;;;;;15.60;7.80;;;;;;;0.43;100.00;93750.13;5122841;27;20045;-71
2021/03/22 04:43:37;;;;;;;9.93;6.05;;;;;;;0.66;100.00;93737.75;5119712;27;20627;-71
2021/03/22 04:46:03;;;;;;;9.23;4.57;;;;;;;0.45;100.00;93748.97;5104843;27;20504;-71
2021/03/22 04:48:30;;;;;;;12.65;4.03;;;;;;;0.17;100.00;93761.91;5114376;27;20054;-70
2021/03/22 04:50:56;;;;;;;9.40;5.35;;;;;;;0.22;100.00;93758.75;5123939;27;20138;-71
2021/03/22 04:53:22;;;;;;;10.15;5.93;;;;;;;0.13;100.00;93758.94;5118558;27;20055;-71
2021/03/22 04:55:49;;;;;;;14.40;7.95;;;;;;;0.12;100.00;93765.03;5120866;27;20085;-70
2021/03/22 04:58:15;;;;;;;28.40;12.40;;;;;;;0.03;100.00;93735.47;5121738;27;20059;-70
2021/03/22 05:00:45;;;;;;;48.95;17.25;;;;;;;0.17;100.00;93749.88;5107968;27;20063;-71
2021/03/22 05:03:14;;;;;;;40.45;17.85;;;;;;;-0.01;100.00;93759.88;5104125;27;20051;-70
2021/03/22 05:05:41;;;;;;;90.85;19.15;;;;;;;0.07;100.00;93762.25;5108176;27;20040;-71
2021/03/22 05:08:14;;;;;;;56.47;22.25;;;;;;;0.11;100.00;93753.22;5108029;27;20120;-70
2021/03/22 05:10:43;;;;;;;43.13;17.10;;;;;;;0.30;100.00;93753.47;5106241;28;20040;-71
2021/03/22 05:13:12;;;;;;;27.33;11.82;;;;;;;0.17;100.00;93747.31;5107963;27;20511;-71
2021/03/22 05:15:39;;;;;;;32.80;16.20;;;;;;;0.14;100.00;93763.06;5108753;27;20042;-70
2021/03/22 05:18:06;;;;;;;46.38;20.08;;;;;;;0.03;100.00;93760.28;5106654;27;20110;-71
2021/03/22 05:20:43;;;;;;;72.65;25.98;;;;;;;0.14;100.00;93752.81;5104817;28;20070;-71
2021/03/22 05:23:13;;;;;;;102.25;44.10;;;;;;;0.25;100.00;93763.47;5107950;27;20035;-71
2021/03/22 05:25:39;;;;;;;30.00;15.95;;;;;;;0.15;100.00;93762.09;5106695;27;20112;-71
2021/03/22 05:28:08;;;;;;;21.30;10.20;;;;;;;0.25;100.00;93763.47;5108142;27;20032;-70
2021/03/22 05:30:35;;;;;;;31.17;16.40;;;;;;;0.12;100.00;93754.78;5106200;27;20040;-71
2021/03/22 05:33:06;;;;;;;38.92;19.58;;;;;;;0.14;100.00;93768.19;5105915;27;20114;-70
2021/03/22 05:35:33;;;;;;;38.03;16.38;;;;;;;0.28;100.00;93773.34;5107119;27;20032;-71
2021/03/22 05:38:00;;;;;;;36.53;19.95;;;;;;;0.35;100.00;93771.59;5106672;27;20066;-71
2021/03/22 05:40:33;;;;;;;36.10;19.48;;;;;;;0.54;100.00;93758.03;5109644;27;20059;-71
2021/03/22 05:43:05;;;;;;;31.00;18.70;;;;;;;0.70;100.00;93763.75;5107793;27;20127;-71
2021/03/22 05:45:44;;;;;;;54.78;36.05;;;;;;;0.90;100.00;93769.72;5088696;28;20099;-71
2021/03/22 05:48:46;;;;;;;37.08;23.73;;;;;;;1.08;100.00;93769.13;5101104;27;20766;-71
2021/03/22 05:51:12;;;;;;;21.40;11.75;;;;;;;1.20;100.00;93771.84;5108274;27;20043;-71
2021/03/22 05:53:47;;;;;;;24.67;12.43;;;;;;;1.24;100.00;93770.50;5109480;27;20131;-71
2021/03/22 05:56:35;;;;;;;69.88;34.15;;;;;;;1.25;100.00;93759.22;5106792;27;20055;-71
2021/03/22 05:59:17;;;;;;;63.05;30.98;;;;;;;1.32;100.00;93748.97;5107729;27;20060;-72
2021/03/22 06:01:46;;;;;;;38.55;19.08;;;;;;;1.49;100.00;93765.50;5105394;27;20031;-71
2021/03/22 06:04:33;;;;;;;14.98;8.93;;;;;;;1.59;100.00;93770.22;5107307;27;20052;-71
2021/03/22 06:07:00;;;;;;;23.90;13.95;;;;;;;1.65;100.00;93769.41;5106442;28;20536;-71
2021/03/22 06:09:32;;;;;;;19.70;11.60;;;;;;;1.66;100.00;93771.00;5106960;27;20058;-71
2021/03/22 06:12:33;;;;;;;18.02;10.57;;;;;;;1.62;99.49;93774.97;5086555;28;20046;-71
2021/03/22 06:15:37;;;;;;;18.95;10.73;;;;;;;1.60;99.36;93774.34;5087297;28;20066;-72
2021/03/22 06:18:19;;;;;;;26.25;13.85;;;;;;;1.60;99.05;93774.34;5107745;27;20682;-72
2021/03/22 06:20:46;;;;;;;19.98;9.77;;;;;;;1.66;99.14;93768.44;5104690;27;20032;-72
2021/03/22 06:23:26;;;;;;;17.45;8.52;;;;;;;1.86;98.80;93783.00;5107140;27;20043;-72
2021/03/22 06:25:52;;;;;;;16.98;8.45;;;;;;;1.87;98.21;93782.00;5106142;27;20066;-72
2021/03/22 06:28:28;;;;;;;25.95;12.18;;;;;;;1.93;98.12;93781.19;5105483;28;20023;-71
2021/03/22 06:31:06;;;;;;;21.75;11.20;;;;;;;1.84;97.50;93772.16;5106270;27;20038;-72
2021/03/22 06:33:52;;;;;;;23.88;13.23;;;;;;;1.94;97.34;93777.63;5085732;28;20128;-73
2021/03/22 06:36:22;;;;;;;28.15;11.65;;;;;;;2.03;97.22;93770.47;5104436;27;20488;-72
2021/03/22 06:38:54;;;;;;;19.50;10.27;;;;;;;2.20;96.77;93776.75;5089045;28;20052;-72
2021/03/22 06:41:28;;;;;;;21.67;10.32;;;;;;;2.28;96.72;93778.28;5088814;27;20044;-72
2021/03/22 06:44:13;;;;;;;14.45;7.45;;;;;;;2.44;95.67;93780.38;5088462;28;20051;-73
2021/03/22 06:46:55;;;;;;;17.77;6.85;;;;;;;2.51;94.76;93777.00;5104959;27;20036;-71
2021/03/22 06:49:31;;;;;;;15.98;7.57;;;;;;;2.52;93.73;93783.69;5099359;27;20482;-73
2021/03/22 06:52:02;;;;;;;12.02;8.13;;;;;;;2.49;93.55;93780.53;5106161;28;20043;-73
2021/03/22 06:54:51;;;;;;;18.77;10.68;;;;;;;2.38;93.59;93783.78;5106993;28;20048;-72
2021/03/22 06:57:28;;;;;;;23.77;12.48;;;;;;;2.28;93.51;93768.00;5105641;28;20427;-73
2021/03/22 07:00:07;;;;;;;16.88;10.18;;;;;;;2.40;93.97;93781.78;5105491;27;20059;-73
2021/03/22 07:02:58;;;;;;;19.42;10.63;;;;;;;2.44;93.85;93772.66;5105953;28;20119;-73
2021/03/22 07:05:28;;;;;;;14.50;8.55;;;;;;;2.35;92.89;93771.31;5105492;28;20040;-73
2021/03/22 07:08:09;;;;;;;13.52;8.15;;;;;;;2.31;93.10;93777.88;5106576;28;20050;-73
2021/03/22 07:10:44;;;;;;;14.57;8.75;;;;;;;2.25;93.28;93774.34;5106650;28;20040;-73
2021/03/22 07:13:28;;;;;;;13.07;7.40;;;;;;;2.25;93.14;93778.69;5106577;28;20160;-72
2021/03/22 07:16:15;;;;;;;17.13;10.05;;;;;;;2.28;94.04;93775.72;5106136;28;20039;-73
2021/03/22 07:19:02;;;;;;;18.83;10.90;;;;;;;2.30;93.89;93776.28;5106389;28;20051;-73
2021/03/22 07:21:30;;;;;;;14.23;9.48;;;;;;;2.40;93.99;93776.63;5103917;28;20535;-73
2021/03/22 07:24:06;;;;;;;20.80;9.07;;;;;;;2.41;94.14;93762.00;5106540;28;20224;-73
2021/03/22 07:26:50;;;;;;;15.02;8.30;;;;;;;2.49;94.08;93770.25;5105332;28;20058;-73
2021/03/22 07:29:54;;;;;;;17.10;10.38;;;;;;;2.52;93.66;93763.94;5104789;28;20047;-73
2021/03/22 07:32:48;;;;;;;26.58;17.27;;;;;;;2.42;93.47;93769.50;5106057;28;20578;-73
2021/03/22 07:35:18;;;;;;;;;;;;;;;2.27;93.81;93784.44;5103539;28;20044;-72
2021/03/22 07:38:14;;;;;;;17.77;11.00;;;;;;;2.19;94.56;93785.44;5103610;28;20018;-73
2021/03/22 07:40:50;;;;;;;16.05;10.52;;;;;;;1.97;94.90;93792.63;5100871;28;20059;-72
2021/03/22 07:43:23;;;;;;;24.90;13.27;;;;;;;1.94;95.45;93793.03;5104559;28;20063;-74
2021/03/22 07:46:18;;;;;;;20.25;11.57;;;;;;;1.98;96.18;93799.34;5106075;28;20078;-73
2021/03/22 07:48:56;;;;;;;;;;;;;;;1.89;96.09;93800.53;5100561;28;20044;-72
2021/03/22 07:51:48;;;;;;;17.20;10.30;;;;;;;1.86;96.76;93808.66;5104377;28;20699;-72
2021/03/22 07:54:33;;;;;;;17.02;9.25;;;;;;;1.74;96.28;93811.06;5083419;28;20036;-73
2021/03/22 07:57:15;;;;;;;17.25;10.57;;;;;;;1.76;97.03;93800.59;5101255;28;20043;-72
2021/03/22 08:00:06;;;;;;;12.10;8.50;;;;;;;1.94;96.71;93803.28;5099743;28;20039;-73
2021/03/22 08:02:53;;;;;;;10.52;7.20;;;;;;;2.09;96.64;93806.41;5101421;28;20082;-74
2021/03/22 08:05:57;;;;;;;8.90;6.07;;;;;;;2.19;95.62;93807.78;5104815;28;20751;-73
2021/03/22 08:08:56;;;;;;;9.75;5.70;;;;;;;2.41;95.03;93808.25;5100383;28;20829;-73
2021/03/22 08:11:59;;;;;;;11.70;6.80;;;;;;;2.62;93.72;93799.47;5101486;28;20050;-73
2021/03/22 08:14:34;;;;;;;11.35;5.95;;;;;;;2.56;92.56;93806.22;5097952;28;20040;-74
2021/03/22 08:17:16;;;;;;;15.25;7.60;;;;;;;2.51;92.93;93806.03;5100245;28;20032;-73
2021/03/22 08:19:48;;;;;;;12.85;6.97;;;;;;;2.47;93.11;93782.53;5101500;28;20135;-72
2021/03/22 08:22:39;;;;;;;11.40;6.32;;;;;;;2.66;92.73;93800.63;5102911;28;20040;-73
2021/03/22 08:25:20;;;;;;;13.68;5.50;;;;;;;2.66;92.14;93795.47;5104357;28;20122;-74
2021/03/22 08:28:10;;;;;;;9.80;6.43;;;;;;;2.76;92.00;93793.25;5105535;28;20417;-74
2021/03/22 08:31:06;;;;;;;15.23;7.70;;;;;;;2.93;91.92;93785.81;5092498;28;20056;-74
2021/03/22 08:33:52;;;;;;;6.38;3.47;;;;;;;3.05;89.42;93783.34;5107151;28;20044;-74
2021/03/22 08:36:22;;;;;;;5.78;2.95;;;;;;;3.09;87.70;93786.28;5111655;27;20386;-73
2021/03/22 08:38:53;;;;;;;7.90;3.70;;;;;;;3.06;87.17;93764.34;5108671;28;20396;-74
2021/03/22 08:41:30;;;;;;;6.95;2.97;;;;;;;3.19;85.81;93779.69;5109890;28;20035;-74
2021/03/22 08:44:05;;;;;;;7.45;2.92;;;;;;;3.26;85.69;93784.78;5106266;28;20047;-74
2021/03/22 08:46:31;;;;;;;;;;;;;;;3.24;86.66;93784.97;5111682;27;20043;-74
2021/03/22 08:49:00;;;;;;;5.40;3.20;;;;;;;3.10;86.96;93765.50;5105697;27;19928;-71
2021/03/22 08:51:29;;;;;;;5.13;3.33;;;;;;;3.38;86.38;93782.28;5105517;28;20043;-71
2021/03/22 08:53:58;;;;;;;4.38;2.78;;;;;;;3.43;86.58;93785.03;5110000;27;20050;-71
2021/03/22 08:56:45;;;;;;;9.32;3.85;;;;;;;3.44;86.95;93776.31;5109071;28;20046;-74
2021/03/22 08:59:18;;;;;;;7.35;2.97;;;;;;;3.56;85.55;93777.16;5105219;28;20031;-74
2021/03/22 09:01:45;;;;;;;10.80;5.28;;;;;;;3.75;84.65;93777.97;5110635;27;20031;-75
2021/03/22 09:04:21;;;;;;;5.78;3.47;;;;;;;3.79;86.35;93786.06;5118797;27;20045;-73
2021/03/22 09:07:11;;;;;;;7.13;3.35;;;;;;;3.90;85.37;93780.19;5115673;27;20112;-74
2021/03/22 09:09:43;;;;;;;8.82;4.82;;;;;;;3.91;84.19;93771.47;5112653;27;20062;-74
2021/03/22 09:12:32;;;;;;;7.78;4.68;;;;;;;4.20;83.55;93769.16;5122578;27;20118;-71
2021/03/22 09:15:00;;;;;;;7.40;3.25;;;;;;;4.31;82.31;93772.78;5113457;27;20114;-73
2021/03/22 09:17:55;;;;;;;5.88;3.60;;;;;;;4.39;82.17;93783.59;5110033;27;20047;-72
2021/03/22 09:20:27;;;;;;;8.95;4.68;;;;;;;4.45;79.52;93781.94;5108303;28;20063;-75
2021/03/22 09:23:02;;;;;;;8.73;5.00;;;;;;;4.29;80.62;93783.31;5107972;27;20128;-74
2021/03/22 09:25:47;;;;;;;5.85;2.83;;;;;;;4.29;81.58;93778.16;5108432;28;20036;-74
2021/03/22 09:28:30;;;;;;;5.10;2.78;;;;;;;4.29;80.28;93783.31;5110029;27;20043;-74
2021/03/22 09:31:14;;;;;;;8.93;4.25;;;;;;;4.42;80.03;93789.31;5108757;27;20112;-74
2021/03/22 09:33:51;;;;;;;166.85;77.13;;;;;;;4.17;80.31;93790.19;5107871;27;20048;-74
2021/03/22 09:36:46;;;;;;;63.55;26.42;;;;;;;4.29;80.27;93788.47;5107698;27;20057;-74
2021/03/22 09:39:19;;;;;;;31.52;14.90;;;;;;;4.19;79.67;93790.78;5112087;27;20043;-75
2021/03/22 09:42:04;;;;;;;12.85;7.90;;;;;;;4.06;81.63;93783.19;5107609;27;20070;-74
2021/03/22 09:44:32;;;;;;;;;;;;;;;4.00;82.73;93783.06;5108786;27;20417;-74
2021/03/22 09:47:30;;;;;;;6.43;3.50;;;;;;;3.82;81.99;93783.84;5110882;27;19927;-73
2021/03/22 09:50:04;;;;;;;6.18;3.60;;;;;;;3.82;83.39;93772.75;5101906;27;20565;-74
2021/03/22 09:52:51;;;;;;;4.55;2.88;;;;;;;3.54;84.02;93761.13;5107578;28;20051;-73
2021/03/22 09:55:26;;;;;;;7.38;3.90;;;;;;;3.77;83.61;93770.03;5108118;28;20040;-74
2021/03/22 09:57:58;;;;;;;14.27;9.60;;;;;;;3.82;84.38;93767.63;5107935;27;20123;-74
2021/03/22 10:00:33;;;;;;;59.92;35.88;;;;;;;3.89;84.19;93767.53;5109860;27;20513;-74
2021/03/22 10:03:40;;;;;;;43.58;25.05;;;;;;;3.89;82.44;93763.19;5108802;27;20048;-74
2021/03/22 10:06:42;;;;;;;8.40;6.45;;;;;;;3.81;83.84;93759.06;5107419;27;20051;-74
2021/03/22 10:09:15;;;;;;;12.98;7.15;;;;;;;3.97;83.23;93760.28;5081864;28;20477;-75
2021/03/22 10:11:45;;;;;;;41.67;25.83;;;;;;;3.96;83.20;93751.00;5107813;28;20114;-74
2021/03/22 10:14:30;;;;;;;15.40;9.68;;;;;;;4.14;82.99;93754.56;5107156;28;20050;-73
2021/03/22 10:16:58;;;;;;;22.35;14.40;;;;;;;4.39;82.88;93762.97;5106286;27;20071;-74
2021/03/22 10:19:29;;;;;;;20.10;12.00;;;;;;;4.58;79.71;93750.03;5109402;27;20039;-73
2021/03/22 10:22:09;;;;;;;13.48;9.00;;;;;;;4.84;79.38;93758.38;5102489;28;20043;-73
2021/03/22 10:24:51;;;;;;;23.08;12.85;;;;;;;4.66;78.61;93765.16;5103372;28;20135;-73
2021/03/22 10:27:23;;;;;;;9.30;6.68;;;;;;;4.69;79.30;93761.38;5094358;27;20143;-74
2021/03/22 10:29:50;;;;;;;18.00;11.98;;;;;;;4.66;79.69;93767.75;5105748;27;20653;-74
2021/03/22 10:32:25;;;;;;;10.30;6.07;;;;;;;4.40;77.83;93785.16;5099466;27;20450;-73
2021/03/22 10:35:10;;;;;;;15.50;11.57;;;;;;;3.98;81.18;93776.53;5094545;28;20040;-73
2021/03/22 10:37:44;;;;;;;14.43;11.18;;;;;;;4.27;81.45;93780.19;5099532;27;20055;-73
2021/03/22 10:40:23;;;;;;;17.55;10.93;;;;;;;4.33;79.99;93776.72;5101127;27;20036;-73
2021/03/22 10:42:52;;;;;;;10.85;8.13;;;;;;;4.02;80.45;93781.06;5101940;27;20143;-73
2021/03/22 10:45:23;;;;;;;14.82;9.88;;;;;;;3.72;80.50;93782.78;5101450;28;20039;-72
2021/03/22 10:47:51;;;;;;;19.45;11.07;;;;;;;3.84;79.96;93786.22;5097234;27;20044;-73
2021/03/22 10:50:30;;;;;;;48.80;19.70;;;;;;;3.92;80.37;93783.34;5098538;27;20071;-72
2021/03/22 10:53:05;;;;;;;21.15;10.98;;;;;;;4.13;80.92;93778.75;5102952;28;20436;-72
2021/03/22 10:55:32;;;;;;;18.00;11.10;;;;;;;4.12;81.96;93784.91;5104730;27;21206;-71
2021/03/22 10:58:01;;;;;;;11.32;6.63;;;;;;;4.23;77.59;93784.16;5101289;27;20056;-71
2021/03/22 11:00:34;;;;;;;8.90;5.22;;;;;;;4.17;75.85;93767.00;5102923;28;20427;-74
2021/03/22 11:03:08;;;;;;;9.35;6.32;;;;;;;4.50;71.52;93783.84;5103672;27;20048;-74
2021/03/22 11:05:42;;;;;;;6.80;4.78;;;;;;;4.57;70.86;93784.53;5090145;28;20047;-74
2021/03/22 11:08:29;;;;;;;14.60;9.23;;;;;;;4.61;68.78;93780.53;5106159;28;20122;-74
2021/03/22 11:11:05;;;;;;;3.08;2.40;;;;;;;4.18;68.77;93766.03;5106323;28;20043;-74
2021/03/22 11:13:35;;;;;;;4.35;2.58;;;;;;;3.83;69.32;93779.47;5101520;28;20749;-73
2021/03/22 11:16:19;;;;;;;2.08;1.45;;;;;;;3.59;70.54;93789.63;5085095;28;20039;-73
2021/03/22 11:18:46;;;;;;;5.70;2.05;;;;;;;3.29;71.80;93757.81;5102088;28;20067;-74
2021/03/22 11:21:26;;;;;;;8.73;5.15;;;;;;;3.42;72.21;93783.44;5100059;28;20035;-73
2021/03/22 11:23:55;;;;;;;4.82;2.08;;;;;;;3.24;72.56;93782.41;5102185;28;20032;-74
2021/03/22 11:26:30;;;;;;;5.55;2.85;;;;;;;3.23;72.01;93770.53;5099547;28;20039;-74
2021/03/22 11:29:14;;;;;;;11.27;4.20;;;;;;;3.30;72.06;93780.00;5104771;27;20044;-74
2021/03/22 11:31:44;;;;;;;35.20;16.80;;;;;;;3.13;72.55;93779.72;5103647;28;20515;-74
2021/03/22 11:34:30;;;;;;;17.52;9.00;;;;;;;3.11;72.70;93767.06;5097591;28;20953;-73
2021/03/22 11:37:11;;;;;;;25.08;11.63;;;;;;;3.14;73.72;93766.66;5083679;28;20043;-74
2021/03/22 11:39:38;;;;;;;9.43;5.03;;;;;;;2.86;73.96;93778.16;5101417;28;20040;-73
2021/03/22 11:42:20;;;;;;;24.83;12.80;;;;;;;3.04;75.26;93774.03;5105832;28;20048;-73
2021/03/22 11:44:47;;;;;;;14.75;8.02;;;;;;;3.27;74.66;93780.41;5104543;28;20039;-74
2021/03/22 11:47:37;;;;;;;15.13;7.18;;;;;;;3.29;74.16;93783.56;5103328;28;20044;-73
2021/03/22 11:50:36;;;;;;;8.55;4.70;;;;;;;3.18;75.65;93783.22;5103306;28;20543;-73
2021/03/22 11:53:21;;;;;;;14.25;7.30;;;;;;;3.34;74.04;93781.16;5100594;28;20041;-73
2021/03/22 11:55:50;;;;;;;3.90;2.20;;;;;;;3.61;77.88;93792.75;5093003;28;20501;-72
2021/03/22 11:58:27;;;;;;;2.33;1.45;;;;;;;3.71;73.97;93802.59;5099750;28;20046;-73
2021/03/22 12:00:54;;;;;;;10.93;5.47;;;;;;;3.78;73.99;93793.00;5104108;28;20031;-73
2021/03/22 12:03:28;;;;;;;2.58;1.10;;;;;;;3.71;73.34;93796.63;5100246;28;20122;-73
2021/03/22 12:06:05;;;;;;;1.80;0.68;;;;;;;3.51;75.14;93797.63;5099089;27;20055;-73
2021/03/22 12:08:34;;;;;;;1.42;0.70;;;;;;;3.51;76.43;93797.63;5099913;28;20036;-73
2021/03/22 12:11:09;;;;;;;1.02;0.70;;;;;;;3.27;76.46;93801.00;5103176;27;20059;-74
2021/03/22 12:13:35;;;;;;;1.13;0.75;;;;;;;2.97;78.80;93786.16;5104465;28;20495;-73
2021/03/22 12:16:02;;;;;;;1.85;0.88;;;;;;;2.97;79.88;93817.03;5106707;27;20040;-72